sensor_id;sensor_type;location;lat;lon;timestamp;P1;durP1;ratioP1;P2;durP2;ratioP2
76065;SDS011;64763;48.928;8.474;2023-05-16T00:00:50;22.70;;;11.82;;
76065;SDS011;64763;48.928;8.474;2023-05-16T00:03:17;19.17;;;11.70;;
76065;SDS011;64763;48.928;8.474;2023-05-16T00:05:43;18.00;;;12.07;;
76065;SDS011;64763;48.928;8.474;2023-05-16T00:08:08;20.55;;;13.18;;
76065;SDS011;64763;48.928;8.474;2023-05-16T00:10:34;19.05;;;12.45;;
76065;SDS011;64763;48.928;8.474;2023-05-16T00:12:59;18.42;;;12.98;;
76065;SDS011;64763;48.928;8.474;2023-05-16T00:15:26;21.27;;;12.77;;
76065;SDS011;64763;48.928;8.474;2023-05-16T00:17:53;20.30;;;12.80;;
76065;SDS011;64763;48.928;8.474;2023-05-16T00:20:22;20.45;;;12.77;;
76065;SDS011;64763;48.928;8.474;2023-05-16T00:22:48;17.73;;;12.40;;
76065;SDS011;64763;48.928;8.474;2023-05-16T00:25:14;17.13;;;11.60;;
76065;SDS011;64763;48.928;8.474;2023-05-16T00:27:40;18.90;;;11.95;;
76065;SDS011;64763;48.928;8.474;2023-05-16T00:30:05;19.70;;;12.18;;
76065;SDS011;64763;48.928;8.474;2023-05-16T00:32:31;21.60;;;12.77;;
76065;SDS011;64763;48.928;8.474;2023-05-16T00:34:56;17.60;;;11.68;;
76065;SDS011;64763;48.928;8.474;2023-05-16T00:37:22;17.95;;;12.02;;
76065;SDS011;64763;48.928;8.474;2023-05-16T00:39:47;17.15;;;12.25;;
76065;SDS011;64763;48.928;8.474;2023-05-16T00:42:13;16.90;;;11.48;;
76065;SDS011;64763;48.928;8.474;2023-05-16T00:44:38;15.30;;;11.02;;
76065;SDS011;64763;48.928;8.474;2023-05-16T00:47:04;15.80;;;10.55;;
76065;SDS011;64763;48.928;8.474;2023-05-16T00:49:29;15.52;;;10.52;;
76065;SDS011;64763;48.928;8.474;2023-05-16T00:51:55;15.95;;;10.23;;
76065;SDS011;64763;48.928;8.474;2023-05-16T00:54:21;16.67;;;12.02;;
76065;SDS011;64763;48.928;8.474;2023-05-16T00:56:47;17.05;;;11.65;;
76065;SDS011;64763;48.928;8.474;2023-05-16T00:59:13;17.63;;;12.32;;
76065;SDS011;64763;48.928;8.474;2023-05-16T01:01:39;17.83;;;12.75;;
76065;SDS011;64763;48.928;8.474;2023-05-16T01:04:05;20.52;;;12.75;;
76065;SDS011;64763;48.928;8.474;2023-05-16T01:06:31;18.15;;;12.40;;
76065;SDS011;64763;48.928;8.474;2023-05-16T01:08:58;21.02;;;12.95;;
76065;SDS011;64763;48.928;8.474;2023-05-16T01:14:14;21.63;;;13.43;;
76065;SDS011;64763;48.928;8.474;2023-05-16T01:19:55;23.63;;;13.18;;
76065;SDS011;64763;48.928;8.474;2023-05-16T01:27:53;24.67;;;14.95;;
76065;SDS011;64763;48.928;8.474;2023-05-16T01:30:20;24.50;;;14.40;;
76065;SDS011;64763;48.928;8.474;2023-05-16T01:32:45;25.00;;;16.10;;
76065;SDS011;64763;48.928;8.474;2023-05-16T01:35:12;26.40;;;15.00;;
76065;SDS011;64763;48.928;8.474;2023-05-16T01:37:40;26.58;;;15.18;;
76065;SDS011;64763;48.928;8.474;2023-05-16T01:40:15;25.48;;;15.50;;
76065;SDS011;64763;48.928;8.474;2023-05-16T01:42:46;25.50;;;15.70;;
76065;SDS011;64763;48.928;8.474;2023-05-16T01:45:14;31.20;;;16.67;;
76065;SDS011;64763;48.928;8.474;2023-05-16T01:47:53;29.23;;;16.45;;
76065;SDS011;64763;48.928;8.474;2023-05-16T01:50:22;27.45;;;15.57;;
76065;SDS011;64763;48.928;8.474;2023-05-16T01:52:52;27.90;;;16.45;;
76065;SDS011;64763;48.928;8.474;2023-05-16T01:55:22;30.42;;;18.02;;
76065;SDS011;64763;48.928;8.474;2023-05-16T01:57:52;30.60;;;17.70;;
76065;SDS011;64763;48.928;8.474;2023-05-16T02:03:39;28.00;;;16.48;;
76065;SDS011;64763;48.928;8.474;2023-05-16T02:06:04;31.95;;;17.65;;
76065;SDS011;64763;48.928;8.474;2023-05-16T02:08:30;29.67;;;16.80;;
76065;SDS011;64763;48.928;8.474;2023-05-16T02:10:55;32.45;;;17.60;;
76065;SDS011;64763;48.928;8.474;2023-05-16T02:13:21;29.05;;;17.70;;
76065;SDS011;64763;48.928;8.474;2023-05-16T02:15:46;34.85;;;18.17;;
76065;SDS011;64763;48.928;8.474;2023-05-16T02:18:11;34.63;;;18.73;;
76065;SDS011;64763;48.928;8.474;2023-05-16T02:20:37;35.70;;;18.30;;
76065;SDS011;64763;48.928;8.474;2023-05-16T02:23:03;33.67;;;18.98;;
76065;SDS011;64763;48.928;8.474;2023-05-16T02:25:29;31.67;;;18.90;;
76065;SDS011;64763;48.928;8.474;2023-05-16T02:27:54;35.35;;;18.50;;
76065;SDS011;64763;48.928;8.474;2023-05-16T02:30:20;34.42;;;19.92;;
76065;SDS011;64763;48.928;8.474;2023-05-16T02:32:45;37.55;;;18.73;;
76065;SDS011;64763;48.928;8.474;2023-05-16T02:35:12;32.13;;;18.48;;
76065;SDS011;64763;48.928;8.474;2023-05-16T02:37:38;35.00;;;18.83;;
76065;SDS011;64763;48.928;8.474;2023-05-16T02:40:04;36.28;;;20.23;;
76065;SDS011;64763;48.928;8.474;2023-05-16T02:42:30;35.63;;;20.40;;
76065;SDS011;64763;48.928;8.474;2023-05-16T02:44:56;33.70;;;19.65;;
76065;SDS011;64763;48.928;8.474;2023-05-16T02:47:21;40.47;;;19.42;;
76065;SDS011;64763;48.928;8.474;2023-05-16T02:49:47;37.83;;;20.13;;
76065;SDS011;64763;48.928;8.474;2023-05-16T02:52:12;35.13;;;18.52;;
76065;SDS011;64763;48.928;8.474;2023-05-16T02:54:37;34.35;;;19.83;;
76065;SDS011;64763;48.928;8.474;2023-05-16T02:57:03;33.22;;;18.27;;
76065;SDS011;64763;48.928;8.474;2023-05-16T02:59:28;33.70;;;18.88;;
76065;SDS011;64763;48.928;8.474;2023-05-16T03:01:54;34.50;;;19.25;;
76065;SDS011;64763;48.928;8.474;2023-05-16T03:04:19;34.83;;;18.45;;
76065;SDS011;64763;48.928;8.474;2023-05-16T03:06:44;32.63;;;17.40;;
76065;SDS011;64763;48.928;8.474;2023-05-16T03:09:10;35.67;;;19.33;;
76065;SDS011;64763;48.928;8.474;2023-05-16T03:11:36;33.60;;;18.45;;
76065;SDS011;64763;48.928;8.474;2023-05-16T03:14:01;33.10;;;17.02;;
76065;SDS011;64763;48.928;8.474;2023-05-16T03:16:27;34.38;;;19.02;;
76065;SDS011;64763;48.928;8.474;2023-05-16T03:18:52;32.20;;;17.98;;
76065;SDS011;64763;48.928;8.474;2023-05-16T03:21:17;33.72;;;18.40;;
76065;SDS011;64763;48.928;8.474;2023-05-16T03:23:43;34.17;;;18.42;;
76065;SDS011;64763;48.928;8.474;2023-05-16T03:26:08;35.10;;;17.92;;
76065;SDS011;64763;48.928;8.474;2023-05-16T03:28:34;31.05;;;17.48;;
76065;SDS011;64763;48.928;8.474;2023-05-16T03:30:59;31.80;;;18.15;;
76065;SDS011;64763;48.928;8.474;2023-05-16T03:33:25;35.83;;;17.55;;
76065;SDS011;64763;48.928;8.474;2023-05-16T03:35:50;34.35;;;17.88;;
76065;SDS011;64763;48.928;8.474;2023-05-16T03:38:16;33.10;;;17.40;;
76065;SDS011;64763;48.928;8.474;2023-05-16T03:40:41;34.45;;;19.23;;
76065;SDS011;64763;48.928;8.474;2023-05-16T03:43:07;33.35;;;17.25;;
76065;SDS011;64763;48.928;8.474;2023-05-16T03:45:32;33.35;;;17.70;;
76065;SDS011;64763;48.928;8.474;2023-05-16T03:47:58;34.13;;;18.23;;
76065;SDS011;64763;48.928;8.474;2023-05-16T03:50:24;35.17;;;18.98;;
76065;SDS011;64763;48.928;8.474;2023-05-16T03:52:49;31.60;;;17.52;;
76065;SDS011;64763;48.928;8.474;2023-05-16T03:55:15;34.83;;;18.90;;
76065;SDS011;64763;48.928;8.474;2023-05-16T03:57:41;32.40;;;17.88;;
76065;SDS011;64763;48.928;8.474;2023-05-16T04:00:07;32.30;;;18.27;;
76065;SDS011;64763;48.928;8.474;2023-05-16T04:02:33;32.85;;;17.83;;
76065;SDS011;64763;48.928;8.474;2023-05-16T04:04:58;35.85;;;18.60;;
76065;SDS011;64763;48.928;8.474;2023-05-16T04:07:24;33.08;;;18.15;;
76065;SDS011;64763;48.928;8.474;2023-05-16T04:09:50;33.22;;;18.58;;
76065;SDS011;64763;48.928;8.474;2023-05-16T04:12:15;35.75;;;18.50;;
76065;SDS011;64763;48.928;8.474;2023-05-16T04:14:41;31.52;;;17.67;;
76065;SDS011;64763;48.928;8.474;2023-05-16T04:17:06;33.58;;;17.25;;
76065;SDS011;64763;48.928;8.474;2023-05-16T04:19:31;31.35;;;17.85;;
76065;SDS011;64763;48.928;8.474;2023-05-16T04:21:57;31.77;;;18.15;;
76065;SDS011;64763;48.928;8.474;2023-05-16T04:24:22;39.45;;;19.38;;
76065;SDS011;64763;48.928;8.474;2023-05-16T04:26:50;35.05;;;18.02;;
76065;SDS011;64763;48.928;8.474;2023-05-16T04:29:15;38.17;;;18.33;;
76065;SDS011;64763;48.928;8.474;2023-05-16T04:31:41;36.30;;;19.20;;
76065;SDS011;64763;48.928;8.474;2023-05-16T04:34:06;32.45;;;18.02;;
76065;SDS011;64763;48.928;8.474;2023-05-16T04:36:32;39.45;;;17.85;;
76065;SDS011;64763;48.928;8.474;2023-05-16T04:38:59;37.20;;;17.27;;
76065;SDS011;64763;48.928;8.474;2023-05-16T04:41:25;35.35;;;18.67;;
76065;SDS011;64763;48.928;8.474;2023-05-16T04:43:50;42.13;;;20.67;;
76065;SDS011;64763;48.928;8.474;2023-05-16T04:46:15;45.25;;;19.45;;
76065;SDS011;64763;48.928;8.474;2023-05-16T04:48:41;47.10;;;21.42;;
76065;SDS011;64763;48.928;8.474;2023-05-16T04:51:06;50.42;;;21.88;;
76065;SDS011;64763;48.928;8.474;2023-05-16T04:53:32;55.25;;;21.77;;
76065;SDS011;64763;48.928;8.474;2023-05-16T04:55:58;54.92;;;21.70;;
76065;SDS011;64763;48.928;8.474;2023-05-16T04:58:24;56.33;;;22.48;;
76065;SDS011;64763;48.928;8.474;2023-05-16T05:00:53;58.75;;;22.95;;
76065;SDS011;64763;48.928;8.474;2023-05-16T05:03:19;53.13;;;20.70;;
76065;SDS011;64763;48.928;8.474;2023-05-16T05:05:45;56.17;;;22.48;;
76065;SDS011;64763;48.928;8.474;2023-05-16T05:08:11;56.17;;;21.77;;
76065;SDS011;64763;48.928;8.474;2023-05-16T05:10:37;54.28;;;22.38;;
76065;SDS011;64763;48.928;8.474;2023-05-16T05:13:02;49.55;;;20.30;;
76065;SDS011;64763;48.928;8.474;2023-05-16T05:15:28;53.03;;;20.15;;
76065;SDS011;64763;48.928;8.474;2023-05-16T05:17:53;46.97;;;18.88;;
76065;SDS011;64763;48.928;8.474;2023-05-16T05:20:18;51.95;;;21.10;;
76065;SDS011;64763;48.928;8.474;2023-05-16T05:22:44;47.85;;;19.48;;
76065;SDS011;64763;48.928;8.474;2023-05-16T05:25:09;50.03;;;19.10;;
76065;SDS011;64763;48.928;8.474;2023-05-16T05:27:35;45.85;;;18.52;;
76065;SDS011;64763;48.928;8.474;2023-05-16T05:30:01;46.30;;;19.27;;
76065;SDS011;64763;48.928;8.474;2023-05-16T05:32:26;50.13;;;19.08;;
76065;SDS011;64763;48.928;8.474;2023-05-16T05:34:52;47.80;;;17.77;;
76065;SDS011;64763;48.928;8.474;2023-05-16T05:37:17;45.50;;;18.30;;
76065;SDS011;64763;48.928;8.474;2023-05-16T05:39:42;53.33;;;19.00;;
76065;SDS011;64763;48.928;8.474;2023-05-16T05:42:08;43.22;;;18.35;;
76065;SDS011;64763;48.928;8.474;2023-05-16T05:44:33;43.38;;;17.63;;
76065;SDS011;64763;48.928;8.474;2023-05-16T05:46:58;43.95;;;17.75;;
76065;SDS011;64763;48.928;8.474;2023-05-16T05:49:24;58.17;;;18.95;;
76065;SDS011;64763;48.928;8.474;2023-05-16T05:51:50;48.22;;;18.23;;
76065;SDS011;64763;48.928;8.474;2023-05-16T05:54:19;47.80;;;18.35;;
76065;SDS011;64763;48.928;8.474;2023-05-16T05:56:44;46.33;;;16.60;;
76065;SDS011;64763;48.928;8.474;2023-05-16T05:59:10;42.40;;;17.63;;
76065;SDS011;64763;48.928;8.474;2023-05-16T06:01:35;45.33;;;17.45;;
76065;SDS011;64763;48.928;8.474;2023-05-16T06:04:01;42.92;;;17.23;;
76065;SDS011;64763;48.928;8.474;2023-05-16T06:06:26;43.92;;;15.80;;
76065;SDS011;64763;48.928;8.474;2023-05-16T06:08:53;37.80;;;15.10;;
76065;SDS011;64763;48.928;8.474;2023-05-16T06:11:18;36.20;;;15.38;;
76065;SDS011;64763;48.928;8.474;2023-05-16T06:13:43;35.58;;;15.25;;
76065;SDS011;64763;48.928;8.474;2023-05-16T06:16:09;35.60;;;14.38;;
76065;SDS011;64763;48.928;8.474;2023-05-16T06:18:34;41.30;;;15.25;;
76065;SDS011;64763;48.928;8.474;2023-05-16T06:20:59;41.03;;;14.30;;
76065;SDS011;64763;48.928;8.474;2023-05-16T06:23:25;36.13;;;14.50;;
76065;SDS011;64763;48.928;8.474;2023-05-16T06:25:51;34.63;;;14.07;;
76065;SDS011;64763;48.928;8.474;2023-05-16T06:28:16;37.42;;;14.23;;
76065;SDS011;64763;48.928;8.474;2023-05-16T06:30:41;33.33;;;14.70;;
76065;SDS011;64763;48.928;8.474;2023-05-16T06:33:07;34.70;;;13.30;;
76065;SDS011;64763;48.928;8.474;2023-05-16T06:35:32;30.40;;;12.48;;
76065;SDS011;64763;48.928;8.474;2023-05-16T06:37:57;30.77;;;11.90;;
76065;SDS011;64763;48.928;8.474;2023-05-16T06:40:23;27.08;;;11.48;;
76065;SDS011;64763;48.928;8.474;2023-05-16T06:42:48;29.75;;;12.63;;
76065;SDS011;64763;48.928;8.474;2023-05-16T06:45:14;28.52;;;12.10;;
76065;SDS011;64763;48.928;8.474;2023-05-16T06:47:39;27.60;;;11.60;;
76065;SDS011;64763;48.928;8.474;2023-05-16T06:50:05;31.05;;;11.90;;
76065;SDS011;64763;48.928;8.474;2023-05-16T06:52:31;21.38;;;10.35;;
76065;SDS011;64763;48.928;8.474;2023-05-16T06:54:56;21.80;;;9.40;;
76065;SDS011;64763;48.928;8.474;2023-05-16T06:57:22;21.45;;;9.65;;
76065;SDS011;64763;48.928;8.474;2023-05-16T06:59:47;17.50;;;8.05;;
76065;SDS011;64763;48.928;8.474;2023-05-16T07:02:12;18.85;;;9.32;;
76065;SDS011;64763;48.928;8.474;2023-05-16T07:04:38;19.23;;;8.82;;
76065;SDS011;64763;48.928;8.474;2023-05-16T07:07:04;18.80;;;7.93;;
76065;SDS011;64763;48.928;8.474;2023-05-16T07:09:31;19.35;;;8.57;;
76065;SDS011;64763;48.928;8.474;2023-05-16T07:11:57;19.55;;;8.63;;
76065;SDS011;64763;48.928;8.474;2023-05-16T07:14:22;17.98;;;7.68;;
76065;SDS011;64763;48.928;8.474;2023-05-16T07:16:47;19.13;;;8.18;;
76065;SDS011;64763;48.928;8.474;2023-05-16T07:19:13;14.93;;;7.50;;
76065;SDS011;64763;48.928;8.474;2023-05-16T07:21:38;17.40;;;7.60;;
76065;SDS011;64763;48.928;8.474;2023-05-16T07:24:04;11.52;;;5.85;;
76065;SDS011;64763;48.928;8.474;2023-05-16T07:26:30;12.00;;;5.82;;
76065;SDS011;64763;48.928;8.474;2023-05-16T07:28:56;12.90;;;6.45;;
76065;SDS011;64763;48.928;8.474;2023-05-16T07:31:21;13.18;;;6.15;;
76065;SDS011;64763;48.928;8.474;2023-05-16T07:33:48;12.95;;;5.85;;
76065;SDS011;64763;48.928;8.474;2023-05-16T07:36:13;12.90;;;5.82;;
76065;SDS011;64763;48.928;8.474;2023-05-16T07:38:38;11.10;;;5.22;;
76065;SDS011;64763;48.928;8.474;2023-05-16T07:41:04;10.98;;;5.35;;
76065;SDS011;64763;48.928;8.474;2023-05-16T07:43:30;12.10;;;5.47;;
76065;SDS011;64763;48.928;8.474;2023-05-16T07:45:56;9.95;;;4.85;;
76065;SDS011;64763;48.928;8.474;2023-05-16T07:48:21;12.32;;;4.63;;
76065;SDS011;64763;48.928;8.474;2023-05-16T07:50:46;8.43;;;3.97;;
76065;SDS011;64763;48.928;8.474;2023-05-16T07:53:12;7.82;;;3.88;;
76065;SDS011;64763;48.928;8.474;2023-05-16T07:55:37;7.90;;;4.38;;
76065;SDS011;64763;48.928;8.474;2023-05-16T07:58:03;8.57;;;4.10;;
76065;SDS011;64763;48.928;8.474;2023-05-16T08:00:28;6.38;;;3.53;;
76065;SDS011;64763;48.928;8.474;2023-05-16T08:02:53;6.95;;;3.25;;
76065;SDS011;64763;48.928;8.474;2023-05-16T08:05:19;5.00;;;2.75;;
76065;SDS011;64763;48.928;8.474;2023-05-16T08:07:44;5.80;;;3.20;;
76065;SDS011;64763;48.928;8.474;2023-05-16T08:10:10;5.57;;;3.40;;
76065;SDS011;64763;48.928;8.474;2023-05-16T08:12:35;5.65;;;3.33;;
76065;SDS011;64763;48.928;8.474;2023-05-16T08:15:01;4.68;;;2.97;;
76065;SDS011;64763;48.928;8.474;2023-05-16T08:17:27;4.57;;;3.08;;
76065;SDS011;64763;48.928;8.474;2023-05-16T08:19:53;5.80;;;3.15;;
76065;SDS011;64763;48.928;8.474;2023-05-16T08:22:18;6.88;;;3.75;;
76065;SDS011;64763;48.928;8.474;2023-05-16T08:24:43;4.80;;;3.05;;
76065;SDS011;64763;48.928;8.474;2023-05-16T08:27:09;5.20;;;3.90;;
76065;SDS011;64763;48.928;8.474;2023-05-16T08:29:36;4.85;;;3.47;;
76065;SDS011;64763;48.928;8.474;2023-05-16T08:32:01;5.35;;;3.40;;
76065;SDS011;64763;48.928;8.474;2023-05-16T08:34:26;6.22;;;3.33;;
76065;SDS011;64763;48.928;8.474;2023-05-16T08:36:52;4.85;;;3.33;;
76065;SDS011;64763;48.928;8.474;2023-05-16T08:39:18;6.30;;;3.67;;
76065;SDS011;64763;48.928;8.474;2023-05-16T08:41:43;5.68;;;3.22;;
76065;SDS011;64763;48.928;8.474;2023-05-16T08:44:09;5.53;;;3.47;;
76065;SDS011;64763;48.928;8.474;2023-05-16T08:46:36;6.30;;;3.55;;
76065;SDS011;64763;48.928;8.474;2023-05-16T08:49:03;4.38;;;3.25;;
76065;SDS011;64763;48.928;8.474;2023-05-16T08:51:32;4.38;;;2.97;;
76065;SDS011;64763;48.928;8.474;2023-05-16T08:54:02;3.95;;;2.95;;
76065;SDS011;64763;48.928;8.474;2023-05-16T08:56:28;5.05;;;3.33;;
76065;SDS011;64763;48.928;8.474;2023-05-16T08:58:54;4.93;;;2.80;;
76065;SDS011;64763;48.928;8.474;2023-05-16T09:01:21;4.25;;;2.83;;
76065;SDS011;64763;48.928;8.474;2023-05-16T09:03:48;5.40;;;3.17;;
76065;SDS011;64763;48.928;8.474;2023-05-16T09:06:14;3.90;;;2.92;;
76065;SDS011;64763;48.928;8.474;2023-05-16T09:08:40;4.18;;;2.90;;
76065;SDS011;64763;48.928;8.474;2023-05-16T09:11:05;4.22;;;2.97;;
76065;SDS011;64763;48.928;8.474;2023-05-16T09:13:32;3.75;;;2.97;;
76065;SDS011;64763;48.928;8.474;2023-05-16T09:16:07;4.45;;;2.90;;
76065;SDS011;64763;48.928;8.474;2023-05-16T09:18:36;3.67;;;2.50;;
76065;SDS011;64763;48.928;8.474;2023-05-16T09:21:03;3.67;;;2.42;;
76065;SDS011;64763;48.928;8.474;2023-05-16T09:23:29;4.35;;;2.80;;
76065;SDS011;64763;48.928;8.474;2023-05-16T09:25:56;3.83;;;2.63;;
76065;SDS011;64763;48.928;8.474;2023-05-16T09:28:22;3.92;;;2.65;;
76065;SDS011;64763;48.928;8.474;2023-05-16T09:30:47;3.15;;;2.42;;
76065;SDS011;64763;48.928;8.474;2023-05-16T09:33:13;2.90;;;2.10;;
76065;SDS011;64763;48.928;8.474;2023-05-16T09:35:39;3.00;;;1.95;;
76065;SDS011;64763;48.928;8.474;2023-05-16T09:38:04;2.83;;;2.00;;
76065;SDS011;64763;48.928;8.474;2023-05-16T09:40:29;3.17;;;2.20;;
76065;SDS011;64763;48.928;8.474;2023-05-16T09:43:05;3.78;;;2.10;;
76065;SDS011;64763;48.928;8.474;2023-05-16T09:45:31;3.50;;;1.85;;
76065;SDS011;64763;48.928;8.474;2023-05-16T09:48:01;2.65;;;1.70;;
76065;SDS011;64763;48.928;8.474;2023-05-16T09:50:30;8.38;;;2.50;;
76065;SDS011;64763;48.928;8.474;2023-05-16T09:52:57;2.55;;;1.80;;
76065;SDS011;64763;48.928;8.474;2023-05-16T09:55:22;2.47;;;1.65;;
76065;SDS011;64763;48.928;8.474;2023-05-16T09:57:47;2.92;;;1.55;;
76065;SDS011;64763;48.928;8.474;2023-05-16T10:00:13;2.70;;;1.77;;
76065;SDS011;64763;48.928;8.474;2023-05-16T10:02:38;4.45;;;1.60;;
76065;SDS011;64763;48.928;8.474;2023-05-16T10:05:05;2.80;;;1.90;;
76065;SDS011;64763;48.928;8.474;2023-05-16T10:07:30;3.67;;;1.80;;
76065;SDS011;64763;48.928;8.474;2023-05-16T10:09:59;3.20;;;1.80;;
76065;SDS011;64763;48.928;8.474;2023-05-16T10:12:26;5.75;;;4.50;;
76065;SDS011;64763;48.928;8.474;2023-05-16T10:14:54;3.38;;;2.17;;
76065;SDS011;64763;48.928;8.474;2023-05-16T10:17:20;4.22;;;2.53;;
76065;SDS011;64763;48.928;8.474;2023-05-16T10:19:46;3.25;;;2.10;;
76065;SDS011;64763;48.928;8.474;2023-05-16T10:22:11;5.30;;;2.40;;
76065;SDS011;64763;48.928;8.474;2023-05-16T10:27:12;4.50;;;1.90;;
76065;SDS011;64763;48.928;8.474;2023-05-16T10:29:39;4.95;;;2.10;;
76065;SDS011;64763;48.928;8.474;2023-05-16T10:32:05;3.75;;;2.00;;
76065;SDS011;64763;48.928;8.474;2023-05-16T10:34:31;3.28;;;2.08;;
76065;SDS011;64763;48.928;8.474;2023-05-16T10:36:58;2.58;;;1.80;;
76065;SDS011;64763;48.928;8.474;2023-05-16T10:39:23;2.92;;;1.98;;
76065;SDS011;64763;48.928;8.474;2023-05-16T10:41:49;3.17;;;1.92;;
76065;SDS011;64763;48.928;8.474;2023-05-16T10:44:14;3.10;;;2.00;;
76065;SDS011;64763;48.928;8.474;2023-05-16T10:46:40;2.97;;;1.92;;
76065;SDS011;64763;48.928;8.474;2023-05-16T10:49:18;3.78;;;2.00;;
76065;SDS011;64763;48.928;8.474;2023-05-16T10:52:03;2.10;;;1.60;;
76065;SDS011;64763;48.928;8.474;2023-05-16T10:54:39;2.60;;;1.75;;
76065;SDS011;64763;48.928;8.474;2023-05-16T10:57:07;2.58;;;1.48;;
76065;SDS011;64763;48.928;8.474;2023-05-16T10:59:44;3.03;;;1.80;;
76065;SDS011;64763;48.928;8.474;2023-05-16T11:02:20;3.90;;;1.65;;
76065;SDS011;64763;48.928;8.474;2023-05-16T11:04:48;4.60;;;2.10;;
76065;SDS011;64763;48.928;8.474;2023-05-16T11:07:14;2.33;;;1.90;;
76065;SDS011;64763;48.928;8.474;2023-05-16T11:09:42;4.85;;;1.98;;
76065;SDS011;64763;48.928;8.474;2023-05-16T11:12:08;3.13;;;2.00;;
76065;SDS011;64763;48.928;8.474;2023-05-16T11:14:35;6.35;;;2.03;;
76065;SDS011;64763;48.928;8.474;2023-05-16T11:17:07;2.83;;;1.85;;
76065;SDS011;64763;48.928;8.474;2023-05-16T11:19:41;3.97;;;1.60;;
76065;SDS011;64763;48.928;8.474;2023-05-16T11:22:07;1.88;;;1.40;;
76065;SDS011;64763;48.928;8.474;2023-05-16T11:27:24;3.53;;;1.65;;
76065;SDS011;64763;48.928;8.474;2023-05-16T11:29:54;2.20;;;1.30;;
76065;SDS011;64763;48.928;8.474;2023-05-16T11:32:23;3.00;;;1.40;;
76065;SDS011;64763;48.928;8.474;2023-05-16T11:34:49;3.67;;;1.40;;
76065;SDS011;64763;48.928;8.474;2023-05-16T11:37:15;1.90;;;1.20;;
76065;SDS011;64763;48.928;8.474;2023-05-16T11:39:41;1.92;;;1.45;;
76065;SDS011;64763;48.928;8.474;2023-05-16T11:42:07;1.65;;;1.10;;
76065;SDS011;64763;48.928;8.474;2023-05-16T11:44:33;2.95;;;1.33;;
76065;SDS011;64763;48.928;8.474;2023-05-16T11:46:59;2.97;;;1.45;;
76065;SDS011;64763;48.928;8.474;2023-05-16T11:49:26;1.70;;;1.20;;
76065;SDS011;64763;48.928;8.474;2023-05-16T11:51:53;2.10;;;1.40;;
76065;SDS011;64763;48.928;8.474;2023-05-16T11:54:18;2.53;;;1.60;;
76065;SDS011;64763;48.928;8.474;2023-05-16T11:56:44;1.90;;;1.30;;
76065;SDS011;64763;48.928;8.474;2023-05-16T11:59:09;2.33;;;1.40;;
76065;SDS011;64763;48.928;8.474;2023-05-16T12:01:36;2.80;;;1.55;;
76065;SDS011;64763;48.928;8.474;2023-05-16T12:04:10;2.30;;;1.60;;
76065;SDS011;64763;48.928;8.474;2023-05-16T12:06:36;2.10;;;1.38;;
76065;SDS011;64763;48.928;8.474;2023-05-16T12:09:03;2.03;;;1.38;;
76065;SDS011;64763;48.928;8.474;2023-05-16T12:11:37;2.70;;;1.50;;
76065;SDS011;64763;48.928;8.474;2023-05-16T12:14:06;4.43;;;1.63;;
76065;SDS011;64763;48.928;8.474;2023-05-16T12:16:33;2.95;;;1.80;;
76065;SDS011;64763;48.928;8.474;2023-05-16T12:18:59;2.42;;;1.60;;
76065;SDS011;64763;48.928;8.474;2023-05-16T12:21:26;2.60;;;1.80;;
76065;SDS011;64763;48.928;8.474;2023-05-16T12:23:54;2.58;;;1.40;;
76065;SDS011;64763;48.928;8.474;2023-05-16T12:26:29;2.65;;;1.58;;
76065;SDS011;64763;48.928;8.474;2023-05-16T12:31:25;2.40;;;1.30;;
76065;SDS011;64763;48.928;8.474;2023-05-16T12:33:54;2.53;;;1.55;;
76065;SDS011;64763;48.928;8.474;2023-05-16T12:36:20;3.05;;;1.67;;
76065;SDS011;64763;48.928;8.474;2023-05-16T12:38:46;4.90;;;1.58;;
76065;SDS011;64763;48.928;8.474;2023-05-16T12:41:18;3.20;;;1.60;;
76065;SDS011;64763;48.928;8.474;2023-05-16T12:43:47;2.28;;;1.60;;
76065;SDS011;64763;48.928;8.474;2023-05-16T12:46:13;4.25;;;1.85;;
76065;SDS011;64763;48.928;8.474;2023-05-16T12:48:43;2.75;;;1.50;;
76065;SDS011;64763;48.928;8.474;2023-05-16T12:51:13;2.42;;;1.65;;
76065;SDS011;64763;48.928;8.474;2023-05-16T12:53:40;2.60;;;1.80;;
76065;SDS011;64763;48.928;8.474;2023-05-16T12:56:09;3.50;;;1.60;;
76065;SDS011;64763;48.928;8.474;2023-05-16T12:58:35;4.35;;;1.77;;
76065;SDS011;64763;48.928;8.474;2023-05-16T13:01:01;3.28;;;1.80;;
76065;SDS011;64763;48.928;8.474;2023-05-16T13:03:27;2.67;;;1.80;;
76065;SDS011;64763;48.928;8.474;2023-05-16T13:05:53;3.80;;;1.80;;
76065;SDS011;64763;48.928;8.474;2023-05-16T13:08:18;2.95;;;1.80;;
76065;SDS011;64763;48.928;8.474;2023-05-16T13:10:44;2.78;;;1.70;;
76065;SDS011;64763;48.928;8.474;2023-05-16T13:13:09;2.97;;;1.90;;
76065;SDS011;64763;48.928;8.474;2023-05-16T13:15:35;3.42;;;2.03;;
76065;SDS011;64763;48.928;8.474;2023-05-16T13:18:02;4.07;;;2.28;;
76065;SDS011;64763;48.928;8.474;2023-05-16T13:20:27;6.47;;;2.70;;
76065;SDS011;64763;48.928;8.474;2023-05-16T13:22:53;4.68;;;2.35;;
76065;SDS011;64763;48.928;8.474;2023-05-16T13:25:19;4.75;;;2.40;;
76065;SDS011;64763;48.928;8.474;2023-05-16T13:27:45;5.35;;;3.10;;
76065;SDS011;64763;48.928;8.474;2023-05-16T13:30:10;4.38;;;2.38;;
76065;SDS011;64763;48.928;8.474;2023-05-16T13:32:36;4.65;;;2.58;;
76065;SDS011;64763;48.928;8.474;2023-05-16T13:35:01;4.20;;;2.60;;
76065;SDS011;64763;48.928;8.474;2023-05-16T13:37:28;7.75;;;2.50;;
76065;SDS011;64763;48.928;8.474;2023-05-16T13:39:53;5.68;;;2.45;;
76065;SDS011;64763;48.928;8.474;2023-05-16T13:42:19;7.43;;;2.78;;
76065;SDS011;64763;48.928;8.474;2023-05-16T13:44:45;5.68;;;2.55;;
76065;SDS011;64763;48.928;8.474;2023-05-16T13:47:10;4.97;;;2.50;;
76065;SDS011;64763;48.928;8.474;2023-05-16T13:49:36;7.10;;;2.53;;
76065;SDS011;64763;48.928;8.474;2023-05-16T13:52:01;6.93;;;2.40;;
76065;SDS011;64763;48.928;8.474;2023-05-16T13:54:27;4.97;;;2.55;;
76065;SDS011;64763;48.928;8.474;2023-05-16T13:56:52;7.50;;;2.60;;
76065;SDS011;64763;48.928;8.474;2023-05-16T13:59:18;4.75;;;2.38;;
76065;SDS011;64763;48.928;8.474;2023-05-16T14:01:43;5.80;;;2.45;;
76065;SDS011;64763;48.928;8.474;2023-05-16T14:04:11;5.50;;;2.58;;
76065;SDS011;64763;48.928;8.474;2023-05-16T14:06:37;4.45;;;2.40;;
76065;SDS011;64763;48.928;8.474;2023-05-16T14:09:02;8.73;;;2.22;;
76065;SDS011;64763;48.928;8.474;2023-05-16T14:11:28;5.43;;;2.40;;
76065;SDS011;64763;48.928;8.474;2023-05-16T14:13:53;5.38;;;2.38;;
76065;SDS011;64763;48.928;8.474;2023-05-16T14:16:18;3.22;;;2.40;;
76065;SDS011;64763;48.928;8.474;2023-05-16T14:18:44;5.85;;;2.25;;
76065;SDS011;64763;48.928;8.474;2023-05-16T14:21:09;6.28;;;2.78;;
76065;SDS011;64763;48.928;8.474;2023-05-16T14:23:35;4.75;;;2.15;;
76065;SDS011;64763;48.928;8.474;2023-05-16T14:26:00;5.55;;;2.40;;
76065;SDS011;64763;48.928;8.474;2023-05-16T14:28:26;9.25;;;2.40;;
76065;SDS011;64763;48.928;8.474;2023-05-16T14:30:52;7.07;;;2.20;;
76065;SDS011;64763;48.928;8.474;2023-05-16T14:33:17;5.50;;;2.60;;
76065;SDS011;64763;48.928;8.474;2023-05-16T14:35:42;7.30;;;2.10;;
76065;SDS011;64763;48.928;8.474;2023-05-16T14:38:08;5.50;;;2.17;;
76065;SDS011;64763;48.928;8.474;2023-05-16T14:40:34;6.15;;;2.10;;
76065;SDS011;64763;48.928;8.474;2023-05-16T14:42:59;6.38;;;2.42;;
76065;SDS011;64763;48.928;8.474;2023-05-16T14:45:27;6.38;;;2.42;;
76065;SDS011;64763;48.928;8.474;2023-05-16T14:47:53;8.30;;;2.25;;
76065;SDS011;64763;48.928;8.474;2023-05-16T14:50:18;6.03;;;2.17;;
76065;SDS011;64763;48.928;8.474;2023-05-16T14:52:44;7.43;;;2.15;;